sensor_id;sensor_type;location;lat;lon;timestamp;pressure;altitude;pressure_sealevel;temperature;humidity
19526;BME280;9907;42.676;26.348;2023-02-13T00:01:12;100850.44;;;1.56;64.63
19526;BME280;9907;42.676;26.348;2023-02-13T00:03:37;100847.94;;;1.51;64.67
19526;BME280;9907;42.676;26.348;2023-02-13T00:06:03;100847.88;;;1.54;64.87
19526;BME280;9907;42.676;26.348;2023-02-13T00:08:28;100854.94;;;1.52;64.61
19526;BME280;9907;42.676;26.348;2023-02-13T00:10:54;100854.72;;;1.61;64.70
19526;BME280;9907;42.676;26.348;2023-02-13T00:13:19;100853.97;;;1.56;64.72
19526;BME280;9907;42.676;26.348;2023-02-13T00:15:45;100862.66;;;1.60;64.54
19526;BME280;9907;42.676;26.348;2023-02-13T00:18:10;100861.00;;;1.56;65.11
19526;BME280;9907;42.676;26.348;2023-02-13T00:20:36;100868.41;;;1.40;65.25
19526;BME280;9907;42.676;26.348;2023-02-13T00:23:01;100865.47;;;1.52;65.01
19526;BME280;9907;42.676;26.348;2023-02-13T00:25:27;100872.56;;;1.50;65.12
19526;BME280;9907;42.676;26.348;2023-02-13T00:27:52;100875.78;;;1.24;66.28
19526;BME280;9907;42.676;26.348;2023-02-13T00:30:19;100872.25;;;1.25;66.12
19526;BME280;9907;42.676;26.348;2023-02-13T00:32:45;100874.91;;;1.24;66.05
19526;BME280;9907;42.676;26.348;2023-02-13T00:35:10;100876.16;;;1.46;65.05
19526;BME280;9907;42.676;26.348;2023-02-13T00:37:36;100874.78;;;1.30;66.01
19526;BME280;9907;42.676;26.348;2023-02-13T00:40:01;100876.50;;;1.32;65.77
19526;BME280;9907;42.676;26.348;2023-02-13T00:42:27;100874.72;;;1.33;65.66
19526;BME280;9907;42.676;26.348;2023-02-13T00:44:52;100877.00;;;1.10;67.18
19526;BME280;9907;42.676;26.348;2023-02-13T00:47:18;100883.13;;;1.10;67.12
19526;BME280;9907;42.676;26.348;2023-02-13T00:49:44;100882.22;;;1.11;67.29
19526;BME280;9907;42.676;26.348;2023-02-13T00:52:09;100882.66;;;1.30;66.42
19526;BME280;9907;42.676;26.348;2023-02-13T00:54:35;100874.72;;;1.33;66.00
19526;BME280;9907;42.676;26.348;2023-02-13T00:57:01;100862.81;;;1.17;66.98
19526;BME280;9907;42.676;26.348;2023-02-13T00:59:26;100869.91;;;1.12;67.16
19526;BME280;9907;42.676;26.348;2023-02-13T01:01:52;100874.59;;;0.99;67.28
19526;BME280;9907;42.676;26.348;2023-02-13T01:04:17;100870.78;;;1.12;67.04
19526;BME280;9907;42.676;26.348;2023-02-13T01:06:43;100874.84;;;1.27;66.37
19526;BME280;9907;42.676;26.348;2023-02-13T01:09:08;100871.94;;;1.01;67.37
19526;BME280;9907;42.676;26.348;2023-02-13T01:11:34;100873.91;;;0.89;67.82
19526;BME280;9907;42.676;26.348;2023-02-13T01:13:59;100870.38;;;0.92;67.36
19526;BME280;9907;42.676;26.348;2023-02-13T01:16:25;100872.38;;;0.81;67.56
19526;BME280;9907;42.676;26.348;2023-02-13T01:18:51;100877.00;;;0.70;67.60
19526;BME280;9907;42.676;26.348;2023-02-13T01:21:18;100877.47;;;0.88;67.65
19526;BME280;9907;42.676;26.348;2023-02-13T01:23:45;100879.63;;;0.68;68.78
19526;BME280;9907;42.676;26.348;2023-02-13T01:26:17;100882.28;;;0.68;68.58
19526;BME280;9907;42.676;26.348;2023-02-13T01:28:45;100874.31;;;0.71;68.40
19526;BME280;9907;42.676;26.348;2023-02-13T01:31:10;100875.19;;;0.72;68.55
19526;BME280;9907;42.676;26.348;2023-02-13T01:33:36;100878.66;;;0.74;68.40
19526;BME280;9907;42.676;26.348;2023-02-13T01:36:10;100873.13;;;0.86;68.16
19526;BME280;9907;42.676;26.348;2023-02-13T01:38:35;100878.28;;;0.92;67.91
19526;BME280;9907;42.676;26.348;2023-02-13T01:41:01;100881.47;;;1.06;68.05
19526;BME280;9907;42.676;26.348;2023-02-13T01:43:43;100883.47;;;0.95;68.44
19526;BME280;9907;42.676;26.348;2023-02-13T01:46:08;100878.81;;;0.66;70.03
19526;BME280;9907;42.676;26.348;2023-02-13T01:48:35;100884.19;;;0.60;70.18
19526;BME280;9907;42.676;26.348;2023-02-13T01:51:07;100890.06;;;0.73;69.33
19526;BME280;9907;42.676;26.348;2023-02-13T01:53:41;100885.56;;;0.78;69.11
19526;BME280;9907;42.676;26.348;2023-02-13T01:58:38;100882.25;;;0.70;69.84
19526;BME280;9907;42.676;26.348;2023-02-13T02:01:07;100881.94;;;0.85;68.86
19526;BME280;9907;42.676;26.348;2023-02-13T02:03:54;100882.66;;;0.91;68.66
19526;BME280;9907;42.676;26.348;2023-02-13T02:06:31;100876.78;;;0.79;68.97
19526;BME280;9907;42.676;26.348;2023-02-13T02:09:02;100875.19;;;0.72;69.07
19526;BME280;9907;42.676;26.348;2023-02-13T02:11:40;100885.69;;;0.72;69.16
19526;BME280;9907;42.676;26.348;2023-02-13T02:14:06;100893.84;;;0.60;69.45
19526;BME280;9907;42.676;26.348;2023-02-13T02:16:32;100893.66;;;0.69;69.37
19526;BME280;9907;42.676;26.348;2023-02-13T02:19:00;100899.75;;;0.71;68.96
19526;BME280;9907;42.676;26.348;2023-02-13T02:27:10;100897.81;;;0.80;68.88
19526;BME280;9907;42.676;26.348;2023-02-13T02:35:45;100909.56;;;0.63;69.82
19526;BME280;9907;42.676;26.348;2023-02-13T02:41:09;100908.50;;;0.71;69.03
19526;BME280;9907;42.676;26.348;2023-02-13T02:52:44;100918.94;;;0.77;69.13
19526;BME280;9907;42.676;26.348;2023-02-13T02:55:37;100923.56;;;0.63;70.82
19526;BME280;9907;42.676;26.348;2023-02-13T02:58:59;100921.94;;;0.58;70.46
19526;BME280;9907;42.676;26.348;2023-02-13T03:01:20;100931.59;;;0.56;70.60
19526;BME280;9907;42.676;26.348;2023-02-13T03:04:05;100928.81;;;0.63;70.19
19526;BME280;9907;42.676;26.348;2023-02-13T03:07:02;100923.53;;;0.66;69.86
19526;BME280;9907;42.676;26.348;2023-02-13T03:09:35;100924.34;;;0.70;70.10
19526;BME280;9907;42.676;26.348;2023-02-13T03:12:22;100921.91;;;0.59;70.01
19526;BME280;9907;42.676;26.348;2023-02-13T03:15:08;100922.53;;;0.72;69.14
19526;BME280;9907;42.676;26.348;2023-02-13T03:17:34;100916.47;;;0.68;69.29
19526;BME280;9907;42.676;26.348;2023-02-13T03:20:22;100914.63;;;0.73;69.42
19526;BME280;9907;42.676;26.348;2023-02-13T03:23:14;100923.41;;;0.72;69.96
19526;BME280;9907;42.676;26.348;2023-02-13T03:25:50;100907.47;;;0.78;70.49
19526;BME280;9907;42.676;26.348;2023-02-13T03:28:29;100905.06;;;0.68;70.83
19526;BME280;9907;42.676;26.348;2023-02-13T03:34:03;100911.63;;;0.91;69.24
19526;BME280;9907;42.676;26.348;2023-02-13T03:36:39;100910.75;;;0.89;68.88
19526;BME280;9907;42.676;26.348;2023-02-13T03:42:17;100902.94;;;0.86;68.87
19526;BME280;9907;42.676;26.348;2023-02-13T03:44:50;100909.88;;;0.89;68.97
19526;BME280;9907;42.676;26.348;2023-02-13T03:47:40;100913.63;;;0.79;68.83
19526;BME280;9907;42.676;26.348;2023-02-13T03:50:07;100910.19;;;0.75;69.05
19526;BME280;9907;42.676;26.348;2023-02-13T03:52:47;100899.88;;;0.66;70.05
19526;BME280;9907;42.676;26.348;2023-02-13T03:55:18;100908.56;;;0.68;69.74
19526;BME280;9907;42.676;26.348;2023-02-13T03:58:10;100902.22;;;0.78;69.25
19526;BME280;9907;42.676;26.348;2023-02-13T04:00:59;100898.06;;;0.68;69.52
19526;BME280;9907;42.676;26.348;2023-02-13T04:03:44;100900.88;;;0.59;69.00
19526;BME280;9907;42.676;26.348;2023-02-13T04:09:37;100906.25;;;0.53;69.77
19526;BME280;9907;42.676;26.348;2023-02-13T04:12:22;100904.75;;;0.40;70.20
19526;BME280;9907;42.676;26.348;2023-02-13T04:14:58;100903.22;;;0.27;70.63
19526;BME280;9907;42.676;26.348;2023-02-13T04:17:31;100908.56;;;0.24;70.64
19526;BME280;9907;42.676;26.348;2023-02-13T04:19:57;100913.78;;;0.25;71.08
19526;BME280;9907;42.676;26.348;2023-02-13T04:22:23;100916.97;;;0.41;70.45
19526;BME280;9907;42.676;26.348;2023-02-13T04:24:49;100919.53;;;0.45;70.44
19526;BME280;9907;42.676;26.348;2023-02-13T04:27:15;100918.78;;;0.39;70.32
19526;BME280;9907;42.676;26.348;2023-02-13T04:29:41;100926.00;;;0.28;69.92
19526;BME280;9907;42.676;26.348;2023-02-13T04:32:09;100928.66;;;0.26;70.46
19526;BME280;9907;42.676;26.348;2023-02-13T04:34:35;100921.53;;;0.33;70.44
19526;BME280;9907;42.676;26.348;2023-02-13T04:37:00;100910.38;;;0.19;71.10
19526;BME280;9907;42.676;26.348;2023-02-13T04:39:26;100917.66;;;0.05;71.79
19526;BME280;9907;42.676;26.348;2023-02-13T04:41:51;100919.66;;;-0.10;71.66
19526;BME280;9907;42.676;26.348;2023-02-13T04:44:17;100924.78;;;-0.04;71.91
19526;BME280;9907;42.676;26.348;2023-02-13T04:46:42;100923.06;;;-0.05;71.82
19526;BME280;9907;42.676;26.348;2023-02-13T04:49:09;100917.50;;;0.14;71.75
19526;BME280;9907;42.676;26.348;2023-02-13T04:51:35;100916.31;;;0.30;71.01
19526;BME280;9907;42.676;26.348;2023-02-13T04:54:00;100924.19;;;0.30;70.92
19526;BME280;9907;42.676;26.348;2023-02-13T04:56:26;100922.22;;;0.42;69.73
19526;BME280;9907;42.676;26.348;2023-02-13T04:58:51;100926.53;;;0.46;69.51
19526;BME280;9907;42.676;26.348;2023-02-13T05:01:17;100928.50;;;0.34;70.25
19526;BME280;9907;42.676;26.348;2023-02-13T05:03:42;100920.00;;;0.21;69.75
19526;BME280;9907;42.676;26.348;2023-02-13T05:06:08;100937.53;;;0.19;69.94
19526;BME280;9907;42.676;26.348;2023-02-13T05:08:34;100931.06;;;0.40;68.68
19526;BME280;9907;42.676;26.348;2023-02-13T05:10:59;100930.84;;;0.49;67.31
19526;BME280;9907;42.676;26.348;2023-02-13T05:13:25;100936.25;;;0.43;67.25
19526;BME280;9907;42.676;26.348;2023-02-13T05:15:50;100943.41;;;0.35;67.35
19526;BME280;9907;42.676;26.348;2023-02-13T05:18:17;100939.13;;;0.29;67.96
19526;BME280;9907;42.676;26.348;2023-02-13T05:20:43;100940.22;;;0.18;67.96
19526;BME280;9907;42.676;26.348;2023-02-13T05:23:14;100937.59;;;0.18;68.02
19526;BME280;9907;42.676;26.348;2023-02-13T05:25:49;100946.66;;;-0.02;68.34
19526;BME280;9907;42.676;26.348;2023-02-13T05:28:15;100945.88;;;-0.07;69.15
19526;BME280;9907;42.676;26.348;2023-02-13T05:30:59;100943.00;;;0.09;68.35
19526;BME280;9907;42.676;26.348;2023-02-13T05:33:25;100942.84;;;0.18;68.98
19526;BME280;9907;42.676;26.348;2023-02-13T05:35:50;100946.16;;;0.27;68.81
19526;BME280;9907;42.676;26.348;2023-02-13T05:38:16;100939.88;;;0.36;68.13
19526;BME280;9907;42.676;26.348;2023-02-13T05:40:41;100944.75;;;0.57;68.15
19526;BME280;9907;42.676;26.348;2023-02-13T05:43:06;100942.78;;;0.68;67.38
19526;BME280;9907;42.676;26.348;2023-02-13T05:45:32;100954.44;;;0.55;66.75
19526;BME280;9907;42.676;26.348;2023-02-13T05:47:57;100950.22;;;0.45;67.16
19526;BME280;9907;42.676;26.348;2023-02-13T05:50:23;100952.75;;;0.51;67.62
19526;BME280;9907;42.676;26.348;2023-02-13T05:52:48;100960.69;;;0.48;67.36
19526;BME280;9907;42.676;26.348;2023-02-13T05:55:14;100970.91;;;0.63;66.82
19526;BME280;9907;42.676;26.348;2023-02-13T05:57:39;100966.44;;;0.70;67.27
19526;BME280;9907;42.676;26.348;2023-02-13T06:00:05;100963.88;;;0.65;67.33
19526;BME280;9907;42.676;26.348;2023-02-13T06:02:31;100965.63;;;0.65;67.45
19526;BME280;9907;42.676;26.348;2023-02-13T06:04:56;100962.63;;;0.84;67.07
19526;BME280;9907;42.676;26.348;2023-02-13T06:07:22;100973.38;;;1.17;66.32
19526;BME280;9907;42.676;26.348;2023-02-13T06:09:47;100971.34;;;1.29;66.20
19526;BME280;9907;42.676;26.348;2023-02-13T06:12:13;100979.06;;;1.37;65.81
19526;BME280;9907;42.676;26.348;2023-02-13T06:14:38;100985.00;;;1.46;65.59
19526;BME280;9907;42.676;26.348;2023-02-13T06:17:04;100986.06;;;1.38;66.10
19526;BME280;9907;42.676;26.348;2023-02-13T06:19:29;100980.47;;;1.53;65.83
19526;BME280;9907;42.676;26.348;2023-02-13T06:21:55;100989.88;;;1.63;64.75
19526;BME280;9907;42.676;26.348;2023-02-13T06:24:20;100978.28;;;1.72;64.30
19526;BME280;9907;42.676;26.348;2023-02-13T06:26:45;100980.59;;;1.85;63.62
19526;BME280;9907;42.676;26.348;2023-02-13T06:29:11;100973.28;;;1.96;62.63
19526;BME280;9907;42.676;26.348;2023-02-13T06:31:37;100977.47;;;2.07;62.62
19526;BME280;9907;42.676;26.348;2023-02-13T06:34:03;100980.66;;;2.19;62.31
19526;BME280;9907;42.676;26.348;2023-02-13T06:36:29;100982.69;;;2.43;61.94
19526;BME280;9907;42.676;26.348;2023-02-13T06:38:54;100989.16;;;2.64;61.62
19526;BME280;9907;42.676;26.348;2023-02-13T06:41:20;100988.34;;;2.62;61.09
19526;BME280;9907;42.676;26.348;2023-02-13T06:43:45;100985.63;;;2.65;62.67
19526;BME280;9907;42.676;26.348;2023-02-13T06:46:11;100988.66;;;2.82;61.20
19526;BME280;9907;42.676;26.348;2023-02-13T06:48:36;100983.94;;;2.95;60.80
19526;BME280;9907;42.676;26.348;2023-02-13T06:51:02;100982.78;;;3.04;60.67
19526;BME280;9907;42.676;26.348;2023-02-13T06:53:28;100991.22;;;3.18;60.40
19526;BME280;9907;42.676;26.348;2023-02-13T06:55:55;100986.38;;;3.32;59.43
19526;BME280;9907;42.676;26.348;2023-02-13T06:58:21;100985.66;;;3.25;60.50
19526;BME280;9907;42.676;26.348;2023-02-13T07:00:48;100994.09;;;3.09;60.76
19526;BME280;9907;42.676;26.348;2023-02-13T07:03:14;100995.25;;;3.29;61.61
19526;BME280;9907;42.676;26.348;2023-02-13T07:05:40;100995.75;;;3.42;60.89
19526;BME280;9907;42.676;26.348;2023-02-13T07:08:07;100994.94;;;3.69;60.04
19526;BME280;9907;42.676;26.348;2023-02-13T07:10:36;100990.53;;;3.96;58.55
19526;BME280;9907;42.676;26.348;2023-02-13T07:13:02;100996.78;;;3.95;57.63
19526;BME280;9907;42.676;26.348;2023-02-13T07:15:28;100992.53;;;4.17;57.93
19526;BME280;9907;42.676;26.348;2023-02-13T07:17:57;100995.63;;;4.30;56.60
19526;BME280;9907;42.676;26.348;2023-02-13T07:20:24;100983.34;;;4.27;56.70
19526;BME280;9907;42.676;26.348;2023-02-13T07:22:50;100983.91;;;4.37;56.94
19526;BME280;9907;42.676;26.348;2023-02-13T07:25:16;100983.84;;;4.65;56.59
19526;BME280;9907;42.676;26.348;2023-02-13T07:27:41;100986.72;;;4.83;56.32
19526;BME280;9907;42.676;26.348;2023-02-13T07:30:07;100973.88;;;4.96;56.89
19526;BME280;9907;42.676;26.348;2023-02-13T07:32:33;100969.13;;;5.06;57.07
19526;BME280;9907;42.676;26.348;2023-02-13T07:34:58;100974.25;;;4.85;57.12
19526;BME280;9907;42.676;26.348;2023-02-13T07:37:26;100980.13;;;4.44;58.43
19526;BME280;9907;42.676;26.348;2023-02-13T07:39:52;100973.72;;;4.51;59.15
19526;BME280;9907;42.676;26.348;2023-02-13T07:42:17;100972.91;;;4.49;59.45
19526;BME280;9907;42.676;26.348;2023-02-13T07:44:43;100976.16;;;4.57;58.82
19526;BME280;9907;42.676;26.348;2023-02-13T07:47:08;100974.13;;;4.65;59.11
19526;BME280;9907;42.676;26.348;2023-02-13T07:49:34;100964.84;;;4.77;58.78
19526;BME280;9907;42.676;26.348;2023-02-13T07:52:01;100969.81;;;4.87;58.70
19526;BME280;9907;42.676;26.348;2023-02-13T07:54:27;100961.81;;;5.12;57.80
19526;BME280;9907;42.676;26.348;2023-02-13T07:56:52;100952.75;;;5.18;57.35
19526;BME280;9907;42.676;26.348;2023-02-13T07:59:17;100954.09;;;5.53;57.10
19526;BME280;9907;42.676;26.348;2023-02-13T08:01:43;100954.53;;;5.40;57.30
19526;BME280;9907;42.676;26.348;2023-02-13T08:04:08;100952.59;;;5.46;57.07
19526;BME280;9907;42.676;26.348;2023-02-13T08:06:34;100946.91;;;5.55;56.77
19526;BME280;9907;42.676;26.348;2023-02-13T08:08:59;100949.63;;;5.76;55.47
19526;BME280;9907;42.676;26.348;2023-02-13T08:11:43;100947.66;;;6.03;55.61
19526;BME280;9907;42.676;26.348;2023-02-13T08:14:19;100951.25;;;6.02;55.95
19526;BME280;9907;42.676;26.348;2023-02-13T08:16:45;100953.66;;;5.86;54.99
19526;BME280;9907;42.676;26.348;2023-02-13T08:19:10;100951.16;;;6.04;55.13
19526;BME280;9907;42.676;26.348;2023-02-13T08:21:36;100943.44;;;6.19;54.76
19526;BME280;9907;42.676;26.348;2023-02-13T08:24:03;100937.22;;;6.41;53.87
19526;BME280;9907;42.676;26.348;2023-02-13T08:26:30;100940.06;;;6.16;53.73
19526;BME280;9907;42.676;26.348;2023-02-13T08:28:56;100937.22;;;6.20;52.96
19526;BME280;9907;42.676;26.348;2023-02-13T08:31:22;100930.06;;;6.43;53.03
19526;BME280;9907;42.676;26.348;2023-02-13T08:33:47;100934.25;;;6.28;53.98
19526;BME280;9907;42.676;26.348;2023-02-13T08:36:12;100932.56;;;6.25;53.63
19526;BME280;9907;42.676;26.348;2023-02-13T08:38:38;100918.59;;;6.42;53.13
19526;BME280;9907;42.676;26.348;2023-02-13T08:41:03;100924.56;;;6.67;52.83
19526;BME280;9907;42.676;26.348;2023-02-13T08:43:29;100924.31;;;6.92;52.51
19526;BME280;9907;42.676;26.348;2023-02-13T08:45:57;100916.28;;;6.94;52.11
19526;BME280;9907;42.676;26.348;2023-02-13T08:48:23;100915.72;;;6.67;52.72
19526;BME280;9907;42.676;26.348;2023-02-13T08:50:49;100917.63;;;6.43;53.48
19526;BME280;9907;42.676;26.348;2023-02-13T08:53:14;100915.28;;;6.57;53.67
19526;BME280;9907;42.676;26.348;2023-02-13T08:55:40;100919.53;;;6.80;53.13
19526;BME280;9907;42.676;26.348;2023-02-13T08:58:05;100911.50;;;7.02;52.49
19526;BME280;9907;42.676;26.348;2023-02-13T09:00:31;100912.34;;;6.83;52.10
19526;BME280;9907;42.676;26.348;2023-02-13T09:03:03;100896.47;;;7.01;52.21
19526;BME280;9907;42.676;26.348;2023-02-13T09:05:29;100908.41;;;7.11;52.34
19526;BME280;9907;42.676;26.348;2023-02-13T09:08:00;100898.63;;;7.11;51.85
19526;BME280;9907;42.676;26.348;2023-02-13T09:10:27;100906.28;;;6.99;51.68
19526;BME280;9907;42.676;26.348;2023-02-13T09:12:53;100908.19;;;6.97;50.76
19526;BME280;9907;42.676;26.348;2023-02-13T09:15:20;100904.44;;;7.01;51.56
19526;BME280;9907;42.676;26.348;2023-02-13T09:17:46;100895.94;;;7.13;51.04
19526;BME280;9907;42.676;26.348;2023-02-13T09:20:12;100898.09;;;7.23;51.52
19526;BME280;9907;42.676;26.348;2023-02-13T09:22:40;100898.13;;;7.22;51.27
19526;BME280;9907;42.676;26.348;2023-02-13T09:25:07;100891.09;;;7.21;52.20
19526;BME280;9907;42.676;26.348;2023-02-13T09:27:33;100890.81;;;7.27;51.31
19526;BME280;9907;42.676;26.348;2023-02-13T09:29:59;100887.81;;;7.16;51.75
19526;BME280;9907;42.676;26.348;2023-02-13T09:32:25;100876.88;;;7.22;51.56
19526;BME280;9907;42.676;26.348;2023-02-13T09:34:51;100881.47;;;7.37;51.74
19526;BME280;9907;42.676;26.348;2023-02-13T09:37:16;100874.16;;;7.42;52.01
19526;BME280;9907;42.676;26.348;2023-02-13T09:39:42;100865.81;;;7.31;52.29
19526;BME280;9907;42.676;26.348;2023-02-13T09:42:29;100858.47;;;7.36;52.16
19526;BME280;9907;42.676;26.348;2023-02-13T09:44:59;100866.03;;;7.08;51.91
19526;BME280;9907;42.676;26.348;2023-02-13T09:47:41;100859.91;;;7.24;51.75
19526;BME280;9907;42.676;26.348;2023-02-13T09:50:20;100851.38;;;7.18;50.68
19526;BME280;9907;42.676;26.348;2023-02-13T09:52:50;100859.19;;;7.02;50.63
19526;BME280;9907;42.676;26.348;2023-02-13T09:55:31;100847.22;;;7.31;51.38
19526;BME280;9907;42.676;26.348;2023-02-13T10:00:39;100834.28;;;7.23;50.56
19526;BME280;9907;42.676;26.348;2023-02-13T10:06:28;100815.88;;;7.55;50.11
19526;BME280;9907;42.676;26.348;2023-02-13T10:09:18;100822.13;;;7.37;50.82
19526;BME280;9907;42.676;26.348;2023-02-13T10:15:36;100819.81;;;7.29;50.57
19526;BME280;9907;42.676;26.348;2023-02-13T10:17:58;100815.66;;;7.42;50.68
19526;BME280;9907;42.676;26.348;2023-02-13T10:20:29;100805.78;;;7.44;50.20
19526;BME280;9907;42.676;26.348;2023-02-13T10:23:26;100802.63;;;7.36;51.81
19526;BME280;9907;42.676;26.348;2023-02-13T10:25:59;100799.06;;;7.54;51.74
19526;BME280;9907;42.676;26.348;2023-02-13T10:31:04;100785.94;;;7.51;51.29
19526;BME280;9907;42.676;26.348;2023-02-13T10:33:38;100786.84;;;7.50;51.52
19526;BME280;9907;42.676;26.348;2023-02-13T10:38:39;100780.00;;;7.46;51.71
19526;BME280;9907;42.676;26.348;2023-02-13T10:41:30;100776.53;;;7.44;52.28
19526;BME280;9907;42.676;26.348;2023-02-13T11:03:22;100746.91;;;7.34;51.71
19526;BME280;9907;42.676;26.348;2023-02-13T11:05:49;100750.25;;;7.38;51.37
19526;BME280;9907;42.676;26.348;2023-02-13T11:08:20;100746.59;;;7.41;51.67
19526;BME280;9907;42.676;26.348;2023-02-13T11:10:46;100746.38;;;7.45;52.08
19526;BME280;9907;42.676;26.348;2023-02-13T11:13:21;100747.94;;;7.49;51.40
19526;BME280;9907;42.676;26.348;2023-02-13T11:16:08;100740.66;;;7.53;52.04
19526;BME280;9907;42.676;26.348;2023-02-13T11:18:40;100740.00;;;7.48;52.12
19526;BME280;9907;42.676;26.348;2023-02-13T11:21:12;100730.56;;;7.42;51.22
19526;BME280;9907;42.676;26.348;2023-02-13T11:23:39;100730.78;;;7.38;52.03
19526;BME280;9907;42.676;26.348;2023-02-13T11:26:13;100724.38;;;7.42;51.90
19526;BME280;9907;42.676;26.348;2023-02-13T11:29:05;100728.50;;;7.30;52.15
19526;BME280;9907;42.676;26.348;2023-02-13T11:31:40;100720.69;;;7.44;52.52
19526;BME280;9907;42.676;26.348;2023-02-13T11:36:51;100709.28;;;7.42;52.04
19526;BME280;9907;42.676;26.348;2023-02-13T11:39:19;100707.88;;;7.35;52.24
19526;BME280;9907;42.676;26.348;2023-02-13T11:41:46;100704.53;;;7.49;52.01
19526;BME280;9907;42.676;26.348;2023-02-13T11:44:25;100695.44;;;7.53;52.34
19526;BME280;9907;42.676;26.348;2023-02-13T11:46:53;100701.44;;;7.22;51.77
19526;BME280;9907;42.676;26.348;2023-02-13T11:49:21;100689.78;;;7.24;52.03
19526;BME280;9907;42.676;26.348;2023-02-13T11:51:52;100682.13;;;7.35;51.65
19526;BME280;9907;42.676;26.348;2023-02-13T11:54:25;100680.34;;;7.53;51.65
19526;BME280;9907;42.676;26.348;2023-02-13T11:56:54;100673.47;;;7.49;51.30
19526;BME280;9907;42.676;26.348;2023-02-13T11:59:21;100675.66;;;7.41;52.29
19526;BME280;9907;42.676;26.348;2023-02-13T12:02:12;100665.19;;;7.38;51.91
19526;BME280;9907;42.676;26.348;2023-02-13T12:04:38;100663.69;;;7.50;51.54
19526;BME280;9907;42.676;26.348;2023-02-13T12:07:15;100653.53;;;7.41;51.59
19526;BME280;9907;42.676;26.348;2023-02-13T12:09:44;100657.22;;;7.38;51.68
19526;BME280;9907;42.676;26.348;2023-02-13T12:12:32;100639.31;;;7.42;52.48
19526;BME280;9907;42.676;26.348;2023-02-13T12:15:03;100640.28;;;7.39;51.40
19526;BME280;9907;42.676;26.348;2023-02-13T12:17:43;100641.72;;;7.46;52.05
19526;BME280;9907;42.676;26.348;2023-02-13T12:20:14;100643.59;;;7.44;52.28
19526;BME280;9907;42.676;26.348;2023-02-13T12:23:20;100631.22;;;7.43;51.87
19526;BME280;9907;42.676;26.348;2023-02-13T12:26:17;100633.59;;;7.49;51.94
19526;BME280;9907;42.676;26.348;2023-02-13T12:39:36;100618.63;;;7.47;51.60
19526;BME280;9907;42.676;26.348;2023-02-13T12:42:24;100612.31;;;7.49;52.02
19526;BME280;9907;42.676;26.348;2023-02-13T12:50:43;100613.22;;;7.65;52.52
19526;BME280;9907;42.676;26.348;2023-02-13T13:27:24;100593.91;;;7.62;52.34
19526;BME280;9907;42.676;26.348;2023-02-13T13:32:23;100602.03;;;7.59;52.44
19526;BME280;9907;42.676;26.348;2023-02-13T13:34:50;100593.19;;;7.58;52.24
19526;BME280;9907;42.676;26.348;2023-02-13T13:37:33;100583.06;;;7.49;52.59
19526;BME280;9907;42.676;26.348;2023-02-13T13:40:29;100578.28;;;7.56;52.71
19526;BME280;9907;42.676;26.348;2023-02-13T13:46:17;100572.25;;;7.52;53.09
19526;BME280;9907;42.676;26.348;2023-02-13T13:49:07;100569.19;;;7.60;52.37
19526;BME280;9907;42.676;26.348;2023-02-13T13:51:37;100566.28;;;7.64;52.36
19526;BME280;9907;42.676;26.348;2023-02-13T14:07:46;100556.13;;;7.55;52.97
19526;BME280;9907;42.676;26.348;2023-02-13T14:12:50;100557.69;;;7.59;53.02
19526;BME280;9907;42.676;26.348;2023-02-13T14:18:22;100556.47;;;7.49;53.70
19526;BME280;9907;42.676;26.348;2023-02-13T14:20:51;100563.41;;;7.52;53.04
19526;BME280;9907;42.676;26.348;2023-02-13T14:23:44;100558.78;;;7.55;52.78
19526;BME280;9907;42.676;26.348;2023-02-13T14:26:31;100557.75;;;7.58;53.30
19526;BME280;9907;42.676;26.348;2023-02-13T14:29:09;100554.09;;;7.60;53.31
19526;BME280;9907;42.676;26.348;2023-02-13T14:31:49;100546.03;;;7.62;53.21
19526;BME280;9907;42.676;26.348;2023-02-13T14:34:20;100547.47;;;7.52;53.61
19526;BME280;9907;42.676;26.348;2023-02-13T14:39:34;100548.03;;;7.41;53.72
19526;BME280;9907;42.676;26.348;2023-02-13T14:42:02;100541.94;;;7.39;53.26
19526;BME280;9907;42.676;26.348;2023-02-13T14:44:44;100544.69;;;7.38;53.82
19526;BME280;9907;42.676;26.348;2023-02-13T14:47:20;100532.41;;;7.35;53.91
19526;BME280;9907;42.676;26.348;2023-02-13T14:49:48;100534.06;;;7.38;53.31
19526;BME280;9907;42.676;26.348;2023-02-13T14:52:36;100542.19;;;7.34;54.24
19526;BME280;9907;42.676;26.348;2023-02-13T14:55:11;100532.91;;;7.26;54.24
19526;BME280;9907;42.676;26.348;2023-02-13T14:57:51;100531.09;;;7.26;54.47
19526;BME280;9907;42.676;26.348;2023-02-13T15:02:52;100531.44;;;7.20;53.96
19526;BME280;9907;42.676;26.348;2023-02-13T15:05:19;100524.56;;;7.16;54.13
19526;BME280;9907;42.676;26.348;2023-02-13T15:07:49;100528.66;;;7.22;53.58
19526;BME280;9907;42.676;26.348;2023-02-13T15:12:43;100520.34;;;7.12;53.63
19526;BME280;9907;42.676;26.348;2023-02-13T15:15:24;100518.94;;;7.05;53.60
19526;BME280;9907;42.676;26.348;2023-02-13T15:17:52;100522.00;;;6.98;53.87
19526;BME280;9907;42.676;26.348;2023-02-13T15:20:24;100531.22;;;6.91;54.29
19526;BME280;9907;42.676;26.348;2023-02-13T15:22:51;100524.34;;;6.87;54.44
19526;BME280;9907;42.676;26.348;2023-02-13T15:25:31;100532.91;;;6.92;54.61
19526;BME280;9907;42.676;26.348;2023-02-13T15:27:58;100534.97;;;6.87;54.91
19526;BME280;9907;42.676;26.348;2023-02-13T15:30:31;100533.22;;;6.85;54.62
19526;BME280;9907;42.676;26.348;2023-02-13T15:33:02;100530.75;;;6.82;54.88
19526;BME280;9907;42.676;26.348;2023-02-13T15:35:31;100532.84;;;6.76;54.35
19526;BME280;9907;42.676;26.348;2023-02-13T15:37:58;100530.25;;;6.74;54.68
19526;BME280;9907;42.676;26.348;2023-02-13T15:40:30;100535.03;;;6.68;55.23
19526;BME280;9907;42.676;26.348;2023-02-13T15:42:57;100534.91;;;6.52;55.35
19526;BME280;9907;42.676;26.348;2023-02-13T15:45:25;100540.66;;;6.43;55.28
19526;BME280;9907;42.676;26.348;2023-02-13T15:47:51;100539.84;;;6.43;55.62
19526;BME280;9907;42.676;26.348;2023-02-13T15:52:46;100547.56;;;6.47;55.95
19526;BME280;9907;42.676;26.348;2023-02-13T15:55:24;100545.06;;;6.44;56.35